Witch Wells, Arizona
Current Conditions -  °F | °C
As of 6:54 AM on Sunday 23 Nov 2014 (Local Time) from KSJN Reporting Station
Clear Clear  
Wind Chill: 34°   Ceiling: Unl
Heat Index: 42°   Visibility: 10mi
Dew Point: 25°   Wind: 18mph
Humidity: 51%   Direction: 260°W
Pressure: 29.96"   Gusts: NA
Location:  34.4981°N, 109.241°W
Report Text: KSJN 231354Z AUTO 26016KT 10SM CLR 06/M04 A2996 RMK AO2 PK WND 25026/1325 SLP109 T00561039
Loading
Personal Weather Stations






























Interactive Weather Map New forecast layout! Learn more

10-Day Weather Forecast

Advertisements
Track Severe Weather on mobile